Ravenna, Ohio
Current Conditions -  °F | °C
As of 8:54 AM on Sunday 21 Dec 2014 (Local Time) from KAKR Reporting Station
Haze Haze  
Wind Chill: 30°   Ceiling: 2300
Heat Index: 30°   Visibility: 5mi
Dew Point: 22°   Wind: 0mph
Humidity: 72%   Direction: NA
Pressure: 30.3"   Gusts: NA
Location:  41.16°N, 81.24°W
Report Text: KAKR 211354Z AUTO 00000KT 5SM HZ OVC023 M01/M06 A3030 RMK AO2 SLP271 T10111056 $
Loading
Personal Weather Stations






























Interactive Weather Map New forecast layout! Learn more

10-Day Weather Forecast

Advertisements
Track Severe Weather on mobile